sensor_id;sensor_type;location;lat;lon;timestamp;P1;durP1;ratioP1;P2;durP2;ratioP2
64799;SDS011;51233;51.982;4.594;2022-12-18T00:02:45;49.17;;;26.98;;
64799;SDS011;51233;51.982;4.594;2022-12-18T00:05:49;58.25;;;32.30;;
64799;SDS011;51233;51.982;4.594;2022-12-18T00:08:49;59.97;;;33.10;;
64799;SDS011;51233;51.982;4.594;2022-12-18T00:11:50;58.47;;;34.83;;
64799;SDS011;51233;51.982;4.594;2022-12-18T00:14:51;63.17;;;32.47;;
64799;SDS011;51233;51.982;4.594;2022-12-18T00:17:51;59.30;;;32.58;;
64799;SDS011;51233;51.982;4.594;2022-12-18T00:20:54;61.85;;;32.83;;
64799;SDS011;51233;51.982;4.594;2022-12-18T00:23:58;56.83;;;31.27;;
64799;SDS011;51233;51.982;4.594;2022-12-18T00:26:59;62.15;;;32.90;;
64799;SDS011;51233;51.982;4.594;2022-12-18T00:29:59;55.05;;;29.42;;
64799;SDS011;51233;51.982;4.594;2022-12-18T00:32:59;57.85;;;29.77;;
64799;SDS011;51233;51.982;4.594;2022-12-18T00:36:07;49.97;;;27.90;;
64799;SDS011;51233;51.982;4.594;2022-12-18T00:39:07;47.42;;;25.77;;
64799;SDS011;51233;51.982;4.594;2022-12-18T00:42:08;55.30;;;29.85;;
64799;SDS011;51233;51.982;4.594;2022-12-18T00:45:38;51.97;;;27.90;;
64799;SDS011;51233;51.982;4.594;2022-12-18T00:48:38;48.60;;;26.25;;
64799;SDS011;51233;51.982;4.594;2022-12-18T00:51:39;53.78;;;28.45;;
64799;SDS011;51233;51.982;4.594;2022-12-18T00:54:39;51.75;;;30.27;;
64799;SDS011;51233;51.982;4.594;2022-12-18T00:57:39;49.33;;;28.77;;
64799;SDS011;51233;51.982;4.594;2022-12-18T01:00:40;49.65;;;29.05;;
64799;SDS011;51233;51.982;4.594;2022-12-18T01:03:41;49.35;;;26.45;;
64799;SDS011;51233;51.982;4.594;2022-12-18T01:06:41;48.97;;;26.27;;
64799;SDS011;51233;51.982;4.594;2022-12-18T01:09:41;47.80;;;25.52;;
64799;SDS011;51233;51.982;4.594;2022-12-18T01:12:41;45.70;;;26.17;;
64799;SDS011;51233;51.982;4.594;2022-12-18T01:15:47;42.10;;;23.60;;
64799;SDS011;51233;51.982;4.594;2022-12-18T01:18:50;45.13;;;24.65;;
64799;SDS011;51233;51.982;4.594;2022-12-18T01:21:51;42.67;;;25.30;;
64799;SDS011;51233;51.982;4.594;2022-12-18T01:24:51;51.85;;;29.67;;
64799;SDS011;51233;51.982;4.594;2022-12-18T01:27:51;51.00;;;29.85;;
64799;SDS011;51233;51.982;4.594;2022-12-18T01:30:51;50.92;;;27.88;;
64799;SDS011;51233;51.982;4.594;2022-12-18T01:33:52;50.25;;;27.40;;
64799;SDS011;51233;51.982;4.594;2022-12-18T01:36:52;45.72;;;25.73;;
64799;SDS011;51233;51.982;4.594;2022-12-18T01:39:52;44.80;;;24.70;;
64799;SDS011;51233;51.982;4.594;2022-12-18T01:42:54;46.42;;;28.58;;
64799;SDS011;51233;51.982;4.594;2022-12-18T01:45:54;44.67;;;24.50;;
64799;SDS011;51233;51.982;4.594;2022-12-18T01:48:57;37.55;;;24.17;;
64799;SDS011;51233;51.982;4.594;2022-12-18T01:51:59;40.88;;;24.15;;
64799;SDS011;51233;51.982;4.594;2022-12-18T01:55:00;41.42;;;25.08;;
64799;SDS011;51233;51.982;4.594;2022-12-18T01:58:00;42.20;;;26.05;;
64799;SDS011;51233;51.982;4.594;2022-12-18T02:01:00;40.42;;;24.45;;
64799;SDS011;51233;51.982;4.594;2022-12-18T02:07:25;40.50;;;24.40;;
64799;SDS011;51233;51.982;4.594;2022-12-18T02:10:30;43.00;;;25.98;;
64799;SDS011;51233;51.982;4.594;2022-12-18T02:26:37;36.15;;;22.15;;
64799;SDS011;51233;51.982;4.594;2022-12-18T02:29:41;39.55;;;21.80;;
64799;SDS011;51233;51.982;4.594;2022-12-18T02:32:47;34.25;;;21.33;;
64799;SDS011;51233;51.982;4.594;2022-12-18T02:35:49;31.75;;;20.88;;
64799;SDS011;51233;51.982;4.594;2022-12-18T02:38:50;35.08;;;21.90;;
64799;SDS011;51233;51.982;4.594;2022-12-18T02:41:50;37.70;;;22.52;;
64799;SDS011;51233;51.982;4.594;2022-12-18T02:44:51;35.13;;;21.00;;
64799;SDS011;51233;51.982;4.594;2022-12-18T02:47:51;31.63;;;18.85;;
64799;SDS011;51233;51.982;4.594;2022-12-18T02:50:55;33.60;;;22.65;;
64799;SDS011;51233;51.982;4.594;2022-12-18T02:54:02;38.00;;;22.02;;
64799;SDS011;51233;51.982;4.594;2022-12-18T02:57:14;41.92;;;25.65;;
64799;SDS011;51233;51.982;4.594;2022-12-18T03:00:16;32.33;;;20.70;;
64799;SDS011;51233;51.982;4.594;2022-12-18T03:03:52;40.10;;;24.40;;
64799;SDS011;51233;51.982;4.594;2022-12-18T03:06:52;34.85;;;22.52;;
64799;SDS011;51233;51.982;4.594;2022-12-18T03:09:53;41.50;;;24.35;;
64799;SDS011;51233;51.982;4.594;2022-12-18T03:12:57;41.60;;;25.77;;
64799;SDS011;51233;51.982;4.594;2022-12-18T03:16:00;42.35;;;23.50;;
64799;SDS011;51233;51.982;4.594;2022-12-18T03:19:01;40.30;;;25.70;;
64799;SDS011;51233;51.982;4.594;2022-12-18T03:22:03;41.63;;;25.10;;
64799;SDS011;51233;51.982;4.594;2022-12-18T03:25:06;34.67;;;21.30;;
64799;SDS011;51233;51.982;4.594;2022-12-18T03:28:08;41.97;;;25.13;;
64799;SDS011;51233;51.982;4.594;2022-12-18T03:31:12;36.60;;;22.40;;
64799;SDS011;51233;51.982;4.594;2022-12-18T03:34:15;33.97;;;20.70;;
64799;SDS011;51233;51.982;4.594;2022-12-18T03:37:17;36.85;;;21.13;;
64799;SDS011;51233;51.982;4.594;2022-12-18T03:40:18;38.53;;;22.98;;
64799;SDS011;51233;51.982;4.594;2022-12-18T03:43:27;38.58;;;22.83;;
64799;SDS011;51233;51.982;4.594;2022-12-18T03:46:30;34.15;;;20.95;;
64799;SDS011;51233;51.982;4.594;2022-12-18T03:52:37;32.28;;;19.75;;
64799;SDS011;51233;51.982;4.594;2022-12-18T03:55:38;30.30;;;19.30;;
64799;SDS011;51233;51.982;4.594;2022-12-18T03:58:38;30.60;;;20.45;;
64799;SDS011;51233;51.982;4.594;2022-12-18T04:01:41;34.33;;;22.05;;
64799;SDS011;51233;51.982;4.594;2022-12-18T04:04:42;34.95;;;21.92;;
64799;SDS011;51233;51.982;4.594;2022-12-18T04:07:43;32.72;;;21.80;;
64799;SDS011;51233;51.982;4.594;2022-12-18T04:10:44;30.85;;;20.23;;
64799;SDS011;51233;51.982;4.594;2022-12-18T04:13:45;30.90;;;19.80;;
64799;SDS011;51233;51.982;4.594;2022-12-18T04:16:45;30.45;;;19.85;;
64799;SDS011;51233;51.982;4.594;2022-12-18T04:19:48;27.90;;;19.08;;
64799;SDS011;51233;51.982;4.594;2022-12-18T04:22:51;29.58;;;19.88;;
64799;SDS011;51233;51.982;4.594;2022-12-18T04:25:51;29.97;;;19.27;;
64799;SDS011;51233;51.982;4.594;2022-12-18T04:28:51;29.45;;;19.80;;
64799;SDS011;51233;51.982;4.594;2022-12-18T04:31:51;30.70;;;19.07;;
64799;SDS011;51233;51.982;4.594;2022-12-18T04:34:52;27.75;;;18.83;;
64799;SDS011;51233;51.982;4.594;2022-12-18T04:37:52;30.20;;;20.00;;
64799;SDS011;51233;51.982;4.594;2022-12-18T04:40:52;32.08;;;20.02;;
64799;SDS011;51233;51.982;4.594;2022-12-18T04:43:52;29.27;;;18.67;;
64799;SDS011;51233;51.982;4.594;2022-12-18T04:46:53;29.30;;;18.48;;
64799;SDS011;51233;51.982;4.594;2022-12-18T04:49:53;34.65;;;20.20;;
64799;SDS011;51233;51.982;4.594;2022-12-18T04:52:53;29.85;;;18.40;;
64799;SDS011;51233;51.982;4.594;2022-12-18T04:56:06;32.28;;;20.05;;
64799;SDS011;51233;51.982;4.594;2022-12-18T04:59:07;27.88;;;18.48;;
64799;SDS011;51233;51.982;4.594;2022-12-18T05:02:08;30.23;;;18.42;;
64799;SDS011;51233;51.982;4.594;2022-12-18T05:05:11;28.45;;;17.98;;
64799;SDS011;51233;51.982;4.594;2022-12-18T05:08:11;28.58;;;18.35;;
64799;SDS011;51233;51.982;4.594;2022-12-18T05:11:13;27.73;;;17.92;;
64799;SDS011;51233;51.982;4.594;2022-12-18T05:14:37;26.83;;;17.30;;
64799;SDS011;51233;51.982;4.594;2022-12-18T05:17:40;26.40;;;16.57;;
64799;SDS011;51233;51.982;4.594;2022-12-18T05:20:46;25.17;;;17.15;;
64799;SDS011;51233;51.982;4.594;2022-12-18T05:23:46;25.80;;;16.98;;
64799;SDS011;51233;51.982;4.594;2022-12-18T05:26:46;24.08;;;16.63;;
64799;SDS011;51233;51.982;4.594;2022-12-18T05:29:46;23.27;;;16.67;;
64799;SDS011;51233;51.982;4.594;2022-12-18T05:32:46;27.27;;;18.08;;
64799;SDS011;51233;51.982;4.594;2022-12-18T05:35:50;25.23;;;17.92;;
64799;SDS011;51233;51.982;4.594;2022-12-18T05:38:50;25.85;;;17.75;;
64799;SDS011;51233;51.982;4.594;2022-12-18T05:41:50;24.70;;;16.63;;
64799;SDS011;51233;51.982;4.594;2022-12-18T05:44:50;27.55;;;18.05;;
64799;SDS011;51233;51.982;4.594;2022-12-18T05:47:51;28.17;;;18.90;;
64799;SDS011;51233;51.982;4.594;2022-12-18T05:50:51;27.50;;;18.23;;
64799;SDS011;51233;51.982;4.594;2022-12-18T05:53:51;26.52;;;17.85;;
64799;SDS011;51233;51.982;4.594;2022-12-18T05:56:51;25.20;;;18.27;;
64799;SDS011;51233;51.982;4.594;2022-12-18T05:59:51;28.60;;;18.27;;
64799;SDS011;51233;51.982;4.594;2022-12-18T06:02:55;28.25;;;16.92;;
64799;SDS011;51233;51.982;4.594;2022-12-18T06:05:55;33.75;;;19.05;;
64799;SDS011;51233;51.982;4.594;2022-12-18T06:08:55;28.35;;;17.65;;
64799;SDS011;51233;51.982;4.594;2022-12-18T06:11:56;26.23;;;17.67;;
64799;SDS011;51233;51.982;4.594;2022-12-18T06:14:56;30.50;;;18.70;;
64799;SDS011;51233;51.982;4.594;2022-12-18T06:17:56;29.13;;;18.35;;
64799;SDS011;51233;51.982;4.594;2022-12-18T06:20:57;28.15;;;18.85;;
64799;SDS011;51233;51.982;4.594;2022-12-18T06:23:57;25.63;;;17.38;;
64799;SDS011;51233;51.982;4.594;2022-12-18T06:26:58;27.53;;;18.07;;
64799;SDS011;51233;51.982;4.594;2022-12-18T06:29:58;31.52;;;18.85;;
64799;SDS011;51233;51.982;4.594;2022-12-18T06:32:58;27.30;;;18.73;;
64799;SDS011;51233;51.982;4.594;2022-12-18T06:36:02;26.33;;;16.73;;
64799;SDS011;51233;51.982;4.594;2022-12-18T06:39:03;27.60;;;16.90;;
64799;SDS011;51233;51.982;4.594;2022-12-18T06:42:03;24.77;;;17.50;;
64799;SDS011;51233;51.982;4.594;2022-12-18T06:45:03;30.45;;;17.83;;
64799;SDS011;51233;51.982;4.594;2022-12-18T06:48:03;26.88;;;16.65;;
64799;SDS011;51233;51.982;4.594;2022-12-18T06:51:04;26.67;;;16.97;;
64799;SDS011;51233;51.982;4.594;2022-12-18T06:54:04;23.98;;;16.85;;
64799;SDS011;51233;51.982;4.594;2022-12-18T06:57:04;22.65;;;15.32;;
64799;SDS011;51233;51.982;4.594;2022-12-18T07:00:05;21.60;;;15.43;;
64799;SDS011;51233;51.982;4.594;2022-12-18T07:03:05;23.00;;;15.82;;
64799;SDS011;51233;51.982;4.594;2022-12-18T07:06:06;26.20;;;16.40;;
64799;SDS011;51233;51.982;4.594;2022-12-18T07:09:06;24.33;;;16.02;;
64799;SDS011;51233;51.982;4.594;2022-12-18T07:12:06;19.55;;;14.32;;
64799;SDS011;51233;51.982;4.594;2022-12-18T07:15:07;20.80;;;13.77;;
64799;SDS011;51233;51.982;4.594;2022-12-18T07:18:10;22.13;;;14.38;;
64799;SDS011;51233;51.982;4.594;2022-12-18T07:21:12;21.05;;;14.30;;
64799;SDS011;51233;51.982;4.594;2022-12-18T07:24:12;22.23;;;14.65;;
64799;SDS011;51233;51.982;4.594;2022-12-18T07:27:12;19.15;;;13.82;;
64799;SDS011;51233;51.982;4.594;2022-12-18T07:30:16;19.65;;;14.07;;
64799;SDS011;51233;51.982;4.594;2022-12-18T07:33:16;18.42;;;13.15;;
64799;SDS011;51233;51.982;4.594;2022-12-18T07:36:16;20.13;;;13.10;;
64799;SDS011;51233;51.982;4.594;2022-12-18T07:39:16;17.80;;;13.05;;
64799;SDS011;51233;51.982;4.594;2022-12-18T07:42:17;20.45;;;13.32;;
64799;SDS011;51233;51.982;4.594;2022-12-18T07:45:32;20.10;;;13.88;;
64799;SDS011;51233;51.982;4.594;2022-12-18T07:48:32;20.55;;;14.55;;
64799;SDS011;51233;51.982;4.594;2022-12-18T07:51:32;17.33;;;13.68;;
64799;SDS011;51233;51.982;4.594;2022-12-18T07:54:32;19.58;;;13.68;;
64799;SDS011;51233;51.982;4.594;2022-12-18T07:57:32;19.23;;;14.13;;
64799;SDS011;51233;51.982;4.594;2022-12-18T08:00:33;20.02;;;14.57;;
64799;SDS011;51233;51.982;4.594;2022-12-18T08:03:33;17.70;;;12.70;;
64799;SDS011;51233;51.982;4.594;2022-12-18T08:06:34;19.20;;;14.40;;
64799;SDS011;51233;51.982;4.594;2022-12-18T08:09:34;17.95;;;13.20;;
64799;SDS011;51233;51.982;4.594;2022-12-18T08:12:34;17.50;;;12.65;;
64799;SDS011;51233;51.982;4.594;2022-12-18T08:15:34;17.38;;;11.73;;
64799;SDS011;51233;51.982;4.594;2022-12-18T08:18:37;18.38;;;12.38;;
64799;SDS011;51233;51.982;4.594;2022-12-18T08:21:37;16.55;;;12.35;;
64799;SDS011;51233;51.982;4.594;2022-12-18T08:24:37;17.43;;;12.83;;
64799;SDS011;51233;51.982;4.594;2022-12-18T08:27:38;16.45;;;12.43;;
64799;SDS011;51233;51.982;4.594;2022-12-18T08:30:38;17.58;;;11.88;;
64799;SDS011;51233;51.982;4.594;2022-12-18T08:33:38;15.48;;;12.48;;
64799;SDS011;51233;51.982;4.594;2022-12-18T08:36:39;14.75;;;11.50;;
64799;SDS011;51233;51.982;4.594;2022-12-18T08:39:39;15.70;;;12.30;;
64799;SDS011;51233;51.982;4.594;2022-12-18T08:42:42;13.25;;;11.73;;
64799;SDS011;51233;51.982;4.594;2022-12-18T08:46:01;14.82;;;11.90;;
64799;SDS011;51233;51.982;4.594;2022-12-18T08:49:01;16.77;;;11.82;;
64799;SDS011;51233;51.982;4.594;2022-12-18T08:52:01;15.35;;;10.95;;
64799;SDS011;51233;51.982;4.594;2022-12-18T08:55:02;14.25;;;10.82;;
64799;SDS011;51233;51.982;4.594;2022-12-18T08:58:03;16.55;;;12.13;;
64799;SDS011;51233;51.982;4.594;2022-12-18T09:01:04;16.52;;;12.98;;
64799;SDS011;51233;51.982;4.594;2022-12-18T09:04:04;15.85;;;12.77;;
64799;SDS011;51233;51.982;4.594;2022-12-18T09:07:05;18.13;;;12.32;;
64799;SDS011;51233;51.982;4.594;2022-12-18T09:10:05;14.95;;;11.70;;
64799;SDS011;51233;51.982;4.594;2022-12-18T09:13:05;15.35;;;11.23;;
64799;SDS011;51233;51.982;4.594;2022-12-18T09:16:06;13.73;;;11.15;;
64799;SDS011;51233;51.982;4.594;2022-12-18T09:19:06;17.75;;;11.82;;
64799;SDS011;51233;51.982;4.594;2022-12-18T09:22:06;15.30;;;11.05;;
64799;SDS011;51233;51.982;4.594;2022-12-18T09:25:07;15.63;;;12.27;;
64799;SDS011;51233;51.982;4.594;2022-12-18T09:28:12;13.98;;;10.90;;
64799;SDS011;51233;51.982;4.594;2022-12-18T09:31:15;16.95;;;12.70;;
64799;SDS011;51233;51.982;4.594;2022-12-18T09:34:15;14.40;;;11.80;;
64799;SDS011;51233;51.982;4.594;2022-12-18T09:37:16;14.50;;;11.10;;
64799;SDS011;51233;51.982;4.594;2022-12-18T09:40:18;14.43;;;11.52;;
64799;SDS011;51233;51.982;4.594;2022-12-18T09:43:41;15.90;;;12.75;;
64799;SDS011;51233;51.982;4.594;2022-12-18T09:46:44;18.63;;;14.25;;
64799;SDS011;51233;51.982;4.594;2022-12-18T09:49:46;15.30;;;12.30;;
64799;SDS011;51233;51.982;4.594;2022-12-18T09:52:48;19.70;;;12.40;;
64799;SDS011;51233;51.982;4.594;2022-12-18T09:55:49;20.83;;;14.88;;
64799;SDS011;51233;51.982;4.594;2022-12-18T09:58:55;16.73;;;10.95;;
64799;SDS011;51233;51.982;4.594;2022-12-18T10:01:57;14.90;;;11.45;;
64799;SDS011;51233;51.982;4.594;2022-12-18T10:08:29;17.38;;;12.65;;
64799;SDS011;51233;51.982;4.594;2022-12-18T10:11:28;14.10;;;11.68;;
64799;SDS011;51233;51.982;4.594;2022-12-18T10:17:35;14.88;;;12.10;;
64799;SDS011;51233;51.982;4.594;2022-12-18T10:20:48;14.90;;;10.43;;
64799;SDS011;51233;51.982;4.594;2022-12-18T10:27:11;16.00;;;12.68;;
64799;SDS011;51233;51.982;4.594;2022-12-18T10:30:13;15.32;;;12.13;;
64799;SDS011;51233;51.982;4.594;2022-12-18T10:33:13;14.05;;;10.82;;
64799;SDS011;51233;51.982;4.594;2022-12-18T10:36:15;14.40;;;10.93;;
64799;SDS011;51233;51.982;4.594;2022-12-18T10:42:17;13.50;;;10.75;;
64799;SDS011;51233;51.982;4.594;2022-12-18T10:45:18;15.63;;;11.52;;
64799;SDS011;51233;51.982;4.594;2022-12-18T10:48:19;13.17;;;10.87;;
64799;SDS011;51233;51.982;4.594;2022-12-18T10:54:23;19.55;;;12.52;;
64799;SDS011;51233;51.982;4.594;2022-12-18T10:57:32;18.97;;;12.30;;
64799;SDS011;51233;51.982;4.594;2022-12-18T11:00:33;13.73;;;11.73;;
64799;SDS011;51233;51.982;4.594;2022-12-18T11:03:35;16.17;;;12.35;;
64799;SDS011;51233;51.982;4.594;2022-12-18T11:06:36;14.45;;;11.57;;
64799;SDS011;51233;51.982;4.594;2022-12-18T11:10:01;13.52;;;12.13;;
64799;SDS011;51233;51.982;4.594;2022-12-18T11:13:12;14.90;;;11.23;;
64799;SDS011;51233;51.982;4.594;2022-12-18T11:16:18;15.95;;;10.82;;
64799;SDS011;51233;51.982;4.594;2022-12-18T11:22:26;16.80;;;11.52;;
64799;SDS011;51233;51.982;4.594;2022-12-18T11:25:27;14.50;;;12.10;;
64799;SDS011;51233;51.982;4.594;2022-12-18T11:28:29;14.27;;;11.13;;
64799;SDS011;51233;51.982;4.594;2022-12-18T11:31:34;16.77;;;11.70;;
64799;SDS011;51233;51.982;4.594;2022-12-18T11:34:34;16.85;;;11.85;;
64799;SDS011;51233;51.982;4.594;2022-12-18T11:37:35;14.73;;;11.63;;
64799;SDS011;51233;51.982;4.594;2022-12-18T11:40:36;13.50;;;10.35;;
64799;SDS011;51233;51.982;4.594;2022-12-18T11:43:38;14.93;;;12.82;;
64799;SDS011;51233;51.982;4.594;2022-12-18T11:46:46;17.38;;;12.35;;
64799;SDS011;51233;51.982;4.594;2022-12-18T11:49:49;16.65;;;11.85;;
64799;SDS011;51233;51.982;4.594;2022-12-18T11:52:49;15.02;;;11.73;;
64799;SDS011;51233;51.982;4.594;2022-12-18T11:55:51;13.68;;;10.82;;
64799;SDS011;51233;51.982;4.594;2022-12-18T11:59:09;14.85;;;12.13;;
64799;SDS011;51233;51.982;4.594;2022-12-18T12:02:28;17.95;;;11.95;;
64799;SDS011;51233;51.982;4.594;2022-12-18T12:12:12;14.45;;;11.90;;
64799;SDS011;51233;51.982;4.594;2022-12-18T12:21:51;14.85;;;12.85;;
64799;SDS011;51233;51.982;4.594;2022-12-18T12:24:59;18.52;;;14.25;;
64799;SDS011;51233;51.982;4.594;2022-12-18T12:32:07;16.40;;;11.45;;
64799;SDS011;51233;51.982;4.594;2022-12-18T12:40:59;15.60;;;11.88;;
64799;SDS011;51233;51.982;4.594;2022-12-18T12:44:01;16.38;;;12.45;;
64799;SDS011;51233;51.982;4.594;2022-12-18T12:47:07;14.80;;;11.95;;
64799;SDS011;51233;51.982;4.594;2022-12-18T12:50:14;13.75;;;10.98;;
64799;SDS011;51233;51.982;4.594;2022-12-18T12:53:23;13.93;;;10.85;;
64799;SDS011;51233;51.982;4.594;2022-12-18T12:56:50;15.10;;;11.18;;
64799;SDS011;51233;51.982;4.594;2022-12-18T13:02:49;13.90;;;10.93;;
64799;SDS011;51233;51.982;4.594;2022-12-18T13:05:54;15.75;;;10.70;;
64799;SDS011;51233;51.982;4.594;2022-12-18T13:08:59;15.82;;;11.95;;
64799;SDS011;51233;51.982;4.594;2022-12-18T13:12:03;13.00;;;11.50;;
64799;SDS011;51233;51.982;4.594;2022-12-18T13:15:30;17.27;;;12.32;;
64799;SDS011;51233;51.982;4.594;2022-12-18T13:18:31;16.30;;;12.50;;
64799;SDS011;51233;51.982;4.594;2022-12-18T13:21:32;15.23;;;11.82;;
64799;SDS011;51233;51.982;4.594;2022-12-18T13:24:33;14.20;;;11.40;;
64799;SDS011;51233;51.982;4.594;2022-12-18T13:30:46;14.20;;;11.70;;
64799;SDS011;51233;51.982;4.594;2022-12-18T13:33:47;14.43;;;12.43;;
64799;SDS011;51233;51.982;4.594;2022-12-18T13:36:47;17.92;;;12.82;;
64799;SDS011;51233;51.982;4.594;2022-12-18T13:39:48;14.48;;;11.48;;
64799;SDS011;51233;51.982;4.594;2022-12-18T13:42:48;14.48;;;12.05;;
64799;SDS011;51233;51.982;4.594;2022-12-18T13:49:38;15.98;;;12.50;;
64799;SDS011;51233;51.982;4.594;2022-12-18T13:52:39;15.95;;;11.82;;
64799;SDS011;51233;51.982;4.594;2022-12-18T13:55:39;16.45;;;12.32;;
64799;SDS011;51233;51.982;4.594;2022-12-18T13:58:43;15.82;;;12.55;;
64799;SDS011;51233;51.982;4.594;2022-12-18T14:01:47;17.05;;;12.80;;
64799;SDS011;51233;51.982;4.594;2022-12-18T14:04:48;18.00;;;13.45;;
64799;SDS011;51233;51.982;4.594;2022-12-18T14:07:49;18.38;;;13.07;;
64799;SDS011;51233;51.982;4.594;2022-12-18T14:10:49;13.98;;;11.23;;
64799;SDS011;51233;51.982;4.594;2022-12-18T14:13:50;15.30;;;12.90;;
64799;SDS011;51233;51.982;4.594;2022-12-18T14:16:52;15.52;;;13.32;;
64799;SDS011;51233;51.982;4.594;2022-12-18T14:19:52;16.75;;;13.57;;
64799;SDS011;51233;51.982;4.594;2022-12-18T14:22:56;14.80;;;12.68;;
64799;SDS011;51233;51.982;4.594;2022-12-18T14:25:57;16.20;;;13.73;;
64799;SDS011;51233;51.982;4.594;2022-12-18T14:29:11;20.83;;;12.65;;
64799;SDS011;51233;51.982;4.594;2022-12-18T14:32:18;16.40;;;12.38;;
64799;SDS011;51233;51.982;4.594;2022-12-18T14:35:22;14.45;;;11.00;;
64799;SDS011;51233;51.982;4.594;2022-12-18T14:41:31;20.77;;;15.63;;
64799;SDS011;51233;51.982;4.594;2022-12-18T14:44:37;15.45;;;13.20;;
64799;SDS011;51233;51.982;4.594;2022-12-18T14:47:38;16.08;;;13.65;;
64799;SDS011;51233;51.982;4.594;2022-12-18T14:50:41;16.00;;;12.48;;
64799;SDS011;51233;51.982;4.594;2022-12-18T14:53:45;17.50;;;13.98;;
64799;SDS011;51233;51.982;4.594;2022-12-18T14:56:46;17.25;;;14.82;;
64799;SDS011;51233;51.982;4.594;2022-12-18T14:59:47;19.17;;;14.50;;
64799;SDS011;51233;51.982;4.594;2022-12-18T15:02:54;15.35;;;13.18;;
64799;SDS011;51233;51.982;4.594;2022-12-18T15:05:55;17.23;;;14.35;;
64799;SDS011;51233;51.982;4.594;2022-12-18T15:08:56;16.57;;;13.63;;
64799;SDS011;51233;51.982;4.594;2022-12-18T15:12:00;16.75;;;13.98;;
64799;SDS011;51233;51.982;4.594;2022-12-18T15:15:00;16.85;;;13.38;;
64799;SDS011;51233;51.982;4.594;2022-12-18T15:18:02;18.88;;;14.68;;
64799;SDS011;51233;51.982;4.594;2022-12-18T15:21:09;18.98;;;14.20;;
64799;SDS011;51233;51.982;4.594;2022-12-18T15:24:20;17.63;;;14.23;;
64799;SDS011;51233;51.982;4.594;2022-12-18T15:27:25;17.33;;;13.98;;
64799;SDS011;51233;51.982;4.594;2022-12-18T15:33:27;18.92;;;13.75;;
64799;SDS011;51233;51.982;4.594;2022-12-18T15:36:29;15.45;;;13.05;;
64799;SDS011;51233;51.982;4.594;2022-12-18T15:39:30;16.90;;;13.98;;
64799;SDS011;51233;51.982;4.594;2022-12-18T15:42:30;17.42;;;12.98;;
64799;SDS011;51233;51.982;4.594;2022-12-18T15:45:49;18.65;;;13.68;;
64799;SDS011;51233;51.982;4.594;2022-12-18T15:48:53;16.30;;;14.02;;
64799;SDS011;51233;51.982;4.594;2022-12-18T15:51:54;16.50;;;12.60;;
64799;SDS011;51233;51.982;4.594;2022-12-18T15:58:14;17.52;;;12.43;;
64799;SDS011;51233;51.982;4.594;2022-12-18T16:01:15;17.02;;;12.00;;
64799;SDS011;51233;51.982;4.594;2022-12-18T16:04:17;19.27;;;14.32;;
64799;SDS011;51233;51.982;4.594;2022-12-18T16:07:18;16.80;;;13.73;;
64799;SDS011;51233;51.982;4.594;2022-12-18T16:10:18;16.88;;;13.57;;
64799;SDS011;51233;51.982;4.594;2022-12-18T16:13:18;18.50;;;12.57;;
64799;SDS011;51233;51.982;4.594;2022-12-18T16:16:19;20.05;;;13.73;;
64799;SDS011;51233;51.982;4.594;2022-12-18T16:19:19;15.07;;;12.80;;
64799;SDS011;51233;51.982;4.594;2022-12-18T16:22:21;17.48;;;13.93;;
64799;SDS011;51233;51.982;4.594;2022-12-18T16:25:24;17.52;;;13.02;;
64799;SDS011;51233;51.982;4.594;2022-12-18T16:28:24;16.58;;;13.43;;
64799;SDS011;51233;51.982;4.594;2022-12-18T16:31:42;19.77;;;13.18;;
64799;SDS011;51233;51.982;4.594;2022-12-18T16:34:43;17.17;;;12.75;;
64799;SDS011;51233;51.982;4.594;2022-12-18T16:37:43;16.60;;;13.80;;
64799;SDS011;51233;51.982;4.594;2022-12-18T16:40:43;17.33;;;13.27;;
64799;SDS011;51233;51.982;4.594;2022-12-18T16:44:03;18.13;;;13.57;;
64799;SDS011;51233;51.982;4.594;2022-12-18T16:47:04;19.75;;;15.48;;
64799;SDS011;51233;51.982;4.594;2022-12-18T16:50:04;17.00;;;14.38;;
64799;SDS011;51233;51.982;4.594;2022-12-18T16:53:05;20.27;;;14.95;;
64799;SDS011;51233;51.982;4.594;2022-12-18T16:56:05;20.58;;;15.73;;
64799;SDS011;51233;51.982;4.594;2022-12-18T16:59:05;18.80;;;15.90;;
64799;SDS011;51233;51.982;4.594;2022-12-18T17:02:08;20.27;;;14.88;;
64799;SDS011;51233;51.982;4.594;2022-12-18T17:05:10;18.67;;;15.57;;
64799;SDS011;51233;51.982;4.594;2022-12-18T17:08:11;18.15;;;15.15;;
64799;SDS011;51233;51.982;4.594;2022-12-18T17:11:11;18.30;;;15.45;;
64799;SDS011;51233;51.982;4.594;2022-12-18T17:14:23;18.65;;;15.82;;
64799;SDS011;51233;51.982;4.594;2022-12-18T17:17:24;20.02;;;16.17;;
64799;SDS011;51233;51.982;4.594;2022-12-18T17:20:27;20.67;;;16.73;;
64799;SDS011;51233;51.982;4.594;2022-12-18T17:23:28;17.45;;;14.35;;
64799;SDS011;51233;51.982;4.594;2022-12-18T17:26:32;19.98;;;16.10;;
64799;SDS011;51233;51.982;4.594;2022-12-18T17:29:32;21.40;;;16.83;;
64799;SDS011;51233;51.982;4.594;2022-12-18T17:32:32;19.05;;;15.82;;
64799;SDS011;51233;51.982;4.594;2022-12-18T17:35:32;26.05;;;16.02;;
64799;SDS011;51233;51.982;4.594;2022-12-18T17:38:32;20.48;;;16.98;;
64799;SDS011;51233;51.982;4.594;2022-12-18T17:41:33;19.90;;;14.60;;
64799;SDS011;51233;51.982;4.594;2022-12-18T17:44:34;19.47;;;14.63;;
64799;SDS011;51233;51.982;4.594;2022-12-18T17:47:34;22.15;;;14.88;;
64799;SDS011;51233;51.982;4.594;2022-12-18T17:50:34;20.20;;;16.70;;
64799;SDS011;51233;51.982;4.594;2022-12-18T17:53:35;20.83;;;16.13;;
64799;SDS011;51233;51.982;4.594;2022-12-18T17:56:35;19.52;;;16.13;;
64799;SDS011;51233;51.982;4.594;2022-12-18T17:59:36;18.45;;;15.00;;
64799;SDS011;51233;51.982;4.594;2022-12-18T18:02:36;21.38;;;16.77;;
64799;SDS011;51233;51.982;4.594;2022-12-18T18:05:36;19.70;;;16.58;;
64799;SDS011;51233;51.982;4.594;2022-12-18T18:08:36;21.25;;;17.30;;
64799;SDS011;51233;51.982;4.594;2022-12-18T18:11:36;18.60;;;14.63;;
64799;SDS011;51233;51.982;4.594;2022-12-18T18:14:55;21.25;;;17.23;;
64799;SDS011;51233;51.982;4.594;2022-12-18T18:17:55;21.67;;;17.10;;
64799;SDS011;51233;51.982;4.594;2022-12-18T18:20:56;20.15;;;14.75;;
64799;SDS011;51233;51.982;4.594;2022-12-18T18:24:02;21.45;;;17.20;;
64799;SDS011;51233;51.982;4.594;2022-12-18T18:27:02;26.15;;;18.20;;
64799;SDS011;51233;51.982;4.594;2022-12-18T18:30:03;21.23;;;18.20;;
64799;SDS011;51233;51.982;4.594;2022-12-18T18:33:06;20.83;;;18.15;;
64799;SDS011;51233;51.982;4.594;2022-12-18T18:36:08;21.85;;;18.38;;
64799;SDS011;51233;51.982;4.594;2022-12-18T18:39:08;23.85;;;18.08;;
64799;SDS011;51233;51.982;4.594;2022-12-18T18:42:11;21.43;;;18.07;;
64799;SDS011;51233;51.982;4.594;2022-12-18T18:45:11;23.70;;;18.73;;
64799;SDS011;51233;51.982;4.594;2022-12-18T18:48:11;22.40;;;18.42;;
64799;SDS011;51233;51.982;4.594;2022-12-18T18:51:13;22.40;;;18.02;;
64799;SDS011;51233;51.982;4.594;2022-12-18T18:54:14;23.63;;;16.73;;
64799;SDS011;51233;51.982;4.594;2022-12-18T18:57:14;24.52;;;17.70;;
64799;SDS011;51233;51.982;4.594;2022-12-18T19:00:15;22.90;;;18.02;;
64799;SDS011;51233;51.982;4.594;2022-12-18T19:03:18;23.55;;;17.42;;
64799;SDS011;51233;51.982;4.594;2022-12-18T19:06:23;23.25;;;18.70;;
64799;SDS011;51233;51.982;4.594;2022-12-18T19:09:25;24.02;;;18.95;;